createdAt,value
2022-08-28T00:00:46.597Z,97767.94
2022-08-28T00:01:49.617Z,97766.72
2022-08-28T00:02:57.298Z,97764.47
2022-08-28T00:04:00.914Z,97754.94
2022-08-28T00:05:05.655Z,97764.66
2022-08-28T00:06:08.741Z,97757.88
2022-08-28T00:07:12.145Z,97746.25
2022-08-28T00:08:17.159Z,97754.59
2022-08-28T00:09:20.267Z,97748.75
2022-08-28T00:10:24.402Z,97757.19
2022-08-28T00:11:27.323Z,97751.66
2022-08-28T00:12:31.783Z,97750.69
2022-08-28T00:13:34.803Z,97751.03
2022-08-28T00:14:37.674Z,97741.09
2022-08-28T00:15:40.733Z,97732.13
2022-08-28T00:16:44.136Z,97723.72
2022-08-28T00:17:47.383Z,97728.13
2022-08-28T00:18:51.287Z,97724.69
2022-08-28T00:19:54.331Z,97731.06
2022-08-28T00:20:58.218Z,97733.00
2022-08-28T00:22:01.584Z,97736.06
2022-08-28T00:23:06.212Z,97747.91
2022-08-28T00:24:09.456Z,97747.16
2022-08-28T00:25:14.620Z,97751.28
2022-08-28T00:26:37.692Z,97740.09
2022-08-28T00:27:57.104Z,97728.84
2022-08-28T00:29:00.166Z,97717.06
2022-08-28T00:30:03.087Z,97720.13
2022-08-28T00:31:06.449Z,97721.16
2022-08-28T00:32:09.405Z,97724.91
2022-08-28T00:33:29.205Z,97734.72
2022-08-28T00:34:33.504Z,97740.88
2022-08-28T00:35:36.790Z,97735.41
2022-08-28T00:36:41.430Z,97744.03
2022-08-28T00:37:46.271Z,97750.16
2022-08-28T00:38:51.504Z,97749.53
2022-08-28T00:39:55.084Z,97750.81
2022-08-28T00:41:04.208Z,97744.56
2022-08-28T00:42:08.360Z,97746.78
2022-08-28T00:43:22.849Z,97754.13
2022-08-28T00:44:28.278Z,97754.59
2022-08-28T00:45:37.329Z,97757.41
2022-08-28T00:46:45.541Z,97750.22
2022-08-28T00:47:48.553Z,97744.63
2022-08-28T00:48:51.625Z,97747.97
2022-08-28T00:49:56.564Z,97750.88
2022-08-28T00:51:18.459Z,97748.19
2022-08-28T00:52:23.964Z,97753.50
2022-08-28T00:53:30.163Z,97755.66
2022-08-28T00:54:38.270Z,97756.34
2022-08-28T00:55:41.482Z,97741.34
2022-08-28T00:56:44.983Z,97748.97
2022-08-28T00:57:51.234Z,97747.00
2022-08-28T00:58:57.095Z,97742.50
2022-08-28T01:00:00.261Z,97741.62
2022-08-28T01:01:03.469Z,97742.97
2022-08-28T01:02:08.341Z,97750.38
2022-08-28T01:03:11.656Z,97741.88
2022-08-28T01:04:18.988Z,97741.28
2022-08-28T01:05:23.129Z,97738.09
2022-08-28T01:06:26.664Z,97734.81
2022-08-28T01:07:29.873Z,97732.72
2022-08-28T01:08:35.787Z,97719.94
2022-08-28T01:09:43.955Z,97724.25
2022-08-28T01:10:54.199Z,97720.16
2022-08-28T01:12:03.520Z,97724.19
2022-08-28T01:13:06.911Z,97719.34
2022-08-28T01:14:13.093Z,97719.31
2022-08-28T01:15:20.418Z,97726.72
2022-08-28T01:16:31.622Z,97730.88
2022-08-28T01:17:37.494Z,97724.72
2022-08-28T01:18:47.114Z,97727.16
2022-08-28T01:19:58.554Z,97729.94
2022-08-28T01:21:20.450Z,97736.38
2022-08-28T01:22:41.886Z,97737.37
2022-08-28T01:24:00.483Z,97740.34
2022-08-28T01:25:08.576Z,97735.28
2022-08-28T01:26:12.040Z,97736.28
2022-08-28T01:27:15.463Z,97742.00
2022-08-28T01:28:19.068Z,97748.31
2022-08-28T01:29:22.144Z,97752.72
2022-08-28T01:30:25.891Z,97754.31
2022-08-28T01:31:31.608Z,97765.75
2022-08-28T01:32:44.040Z,97763.72
2022-08-28T01:33:48.102Z,97759.13
2022-08-28T01:34:51.010Z,97760.13
2022-08-28T01:35:53.889Z,97761.13
2022-08-28T01:36:58.475Z,97762.41
2022-08-28T01:38:04.245Z,97761.06
2022-08-28T01:39:18.039Z,97759.75
2022-08-28T01:40:27.117Z,97761.03
2022-08-28T01:41:33.677Z,97763.84
2022-08-28T01:42:41.611Z,97762.16
2022-08-28T01:43:44.526Z,97760.94
2022-08-28T01:44:47.999Z,97764.78
2022-08-28T01:45:54.837Z,97760.47
2022-08-28T01:46:59.074Z,97757.12
2022-08-28T01:48:02.027Z,97754.03
2022-08-28T01:49:05.104Z,97741.72
2022-08-28T01:50:09.774Z,97763.25
2022-08-28T01:51:14.003Z,97760.50
2022-08-28T01:52:19.932Z,97755.19
2022-08-28T01:53:32.998Z,97755.22
2022-08-28T01:54:36.520Z,97753.06
2022-08-28T01:55:42.853Z,97747.19
2022-08-28T01:56:46.534Z,97748.53
2022-08-28T01:57:53.250Z,97749.62
2022-08-28T01:58:56.307Z,97739.44
2022-08-28T02:00:00.277Z,97753.25
2022-08-28T02:01:03.175Z,97740.72
2022-08-28T02:02:11.063Z,97740.84
2022-08-28T02:03:14.327Z,97746.53
2022-08-28T02:04:17.401Z,97737.87
2022-08-28T02:05:20.449Z,97739.22
2022-08-28T02:06:23.549Z,97731.41
2022-08-28T02:07:26.362Z,97729.37
2022-08-28T02:08:29.318Z,97733.19
2022-08-28T02:09:32.296Z,97722.56
2022-08-28T02:10:38.078Z,97720.88
2022-08-28T02:11:46.296Z,97714.47
2022-08-28T02:12:50.280Z,97717.88
2022-08-28T02:13:54.396Z,97710.25
2022-08-28T02:14:59.756Z,97703.47
2022-08-28T02:16:04.359Z,97704.19
2022-08-28T02:17:11.939Z,97699.34
2022-08-28T02:18:15.224Z,97692.88
2022-08-28T02:19:18.396Z,97699.22
2022-08-28T02:20:21.526Z,97697.50
2022-08-28T02:21:25.464Z,97702.69
2022-08-28T02:22:28.528Z,97706.22
2022-08-28T02:23:31.464Z,97708.13
2022-08-28T02:24:37.772Z,97702.38
2022-08-28T02:25:44.490Z,97700.53
2022-08-28T02:26:48.889Z,97705.38
2022-08-28T02:27:51.852Z,97697.22
2022-08-28T02:28:54.710Z,97702.69
2022-08-28T02:29:59.005Z,97710.47
2022-08-28T02:31:02.017Z,97698.78
2022-08-28T02:32:06.353Z,97703.12
2022-08-28T02:33:09.173Z,97703.69
2022-08-28T02:34:12.020Z,97696.81
2022-08-28T02:35:19.281Z,97706.19
2022-08-28T02:36:23.792Z,97700.41
2022-08-28T02:37:26.744Z,97692.31
2022-08-28T02:38:30.184Z,97701.31
2022-08-28T02:39:35.756Z,97692.50
2022-08-28T02:40:38.783Z,97694.44
2022-08-28T02:41:41.877Z,97689.88
2022-08-28T02:42:45.512Z,97685.31
2022-08-28T02:43:48.518Z,97690.87
2022-08-28T02:44:51.487Z,97694.38
2022-08-28T02:45:59.105Z,97692.09
2022-08-28T02:47:02.017Z,97691.41
2022-08-28T02:48:05.436Z,97692.81
2022-08-28T02:49:18.986Z,97694.78
2022-08-28T02:50:22.142Z,97697.09
2022-08-28T02:51:25.769Z,97691.41
2022-08-28T02:52:28.809Z,97703.97
2022-08-28T02:53:32.029Z,97709.53
2022-08-28T02:54:35.362Z,97734.84
2022-08-28T02:55:38.304Z,97733.75
2022-08-28T02:56:41.335Z,97736.66
2022-08-28T02:57:44.826Z,97746.69
2022-08-28T02:58:48.129Z,97751.44
2022-08-28T02:59:50.978Z,97755.72
2022-08-28T03:00:57.417Z,97754.50
2022-08-28T03:02:04.390Z,97750.31
2022-08-28T03:03:07.316Z,97743.19
2022-08-28T03:04:10.455Z,97753.25
2022-08-28T03:05:16.633Z,97728.84
2022-08-28T03:06:19.689Z,97719.78
2022-08-28T03:07:23.025Z,97733.66
2022-08-28T03:08:27.255Z,97727.22
2022-08-28T03:09:30.847Z,97719.22
2022-08-28T03:10:37.235Z,97733.75
2022-08-28T03:11:41.652Z,97731.81
2022-08-28T03:12:44.615Z,97733.03
2022-08-28T03:13:47.534Z,97733.66
2022-08-28T03:14:54.412Z,97736.31
2022-08-28T03:16:04.244Z,97733.16
2022-08-28T03:17:08.261Z,97732.94
2022-08-28T03:18:12.294Z,97725.13
2022-08-28T03:19:20.892Z,97718.00
2022-08-28T03:20:23.943Z,97725.03
2022-08-28T03:21:26.897Z,97734.72
2022-08-28T03:22:48.514Z,97726.81
2022-08-28T03:23:51.379Z,97732.47
2022-08-28T03:24:54.325Z,97731.44
2022-08-28T03:26:05.364Z,97733.44
2022-08-28T03:27:09.276Z,97732.22
2022-08-28T03:28:12.463Z,97725.19
2022-08-28T03:29:15.602Z,97738.91
2022-08-28T03:30:20.651Z,97741.88
2022-08-28T03:31:26.425Z,97737.78
2022-08-28T03:32:29.859Z,97737.53
2022-08-28T03:33:37.562Z,97734.63
2022-08-28T03:34:45.877Z,97738.78
2022-08-28T03:35:49.657Z,97745.31
2022-08-28T03:36:52.598Z,97743.81
2022-08-28T03:37:55.479Z,97746.06
2022-08-28T03:39:01.216Z,97738.06
2022-08-28T03:40:07.554Z,97736.41
2022-08-28T03:41:13.294Z,97737.19
2022-08-28T03:42:16.396Z,97736.44
2022-08-28T03:43:22.677Z,97726.84
2022-08-28T03:44:25.749Z,97727.00
2022-08-28T03:45:28.664Z,97725.34
2022-08-28T03:46:33.706Z,97732.94
2022-08-28T03:47:38.421Z,97730.63
2022-08-28T03:48:44.667Z,97731.66
2022-08-28T03:49:54.284Z,97728.34
2022-08-28T03:50:58.142Z,97723.78
2022-08-28T03:52:01.255Z,97731.72
2022-08-28T03:53:04.129Z,97726.06
2022-08-28T03:54:07.125Z,97724.59
2022-08-28T03:55:12.581Z,97717.03
2022-08-28T03:56:21.944Z,97719.47
2022-08-28T03:57:28.495Z,97717.16
2022-08-28T03:58:31.482Z,97715.69
2022-08-28T03:59:35.956Z,97716.75
2022-08-28T04:00:40.797Z,97716.16
2022-08-28T04:01:43.671Z,97715.41
2022-08-28T04:02:46.685Z,97706.31
2022-08-28T04:03:53.463Z,97701.59
2022-08-28T04:04:57.184Z,97702.38
2022-08-28T04:06:00.205Z,97703.97
2022-08-28T04:07:03.245Z,97705.34
2022-08-28T04:08:06.742Z,97713.97
2022-08-28T04:09:09.614Z,97704.66
2022-08-28T04:10:12.710Z,97713.56
2022-08-28T04:11:15.784Z,97716.63
2022-08-28T04:12:18.915Z,97713.06
2022-08-28T04:13:24.457Z,97715.09
2022-08-28T04:14:27.407Z,97720.09
2022-08-28T04:15:33.517Z,97709.69
2022-08-28T04:16:37.058Z,97711.28
2022-08-28T04:17:41.488Z,97709.47
2022-08-28T04:18:45.395Z,97716.03
2022-08-28T04:19:48.297Z,97708.53
2022-08-28T04:21:11.104Z,97710.47
2022-08-28T04:22:14.107Z,97711.50
2022-08-28T04:23:17.092Z,97701.25
2022-08-28T04:24:20.013Z,97703.38
2022-08-28T04:25:23.497Z,97699.81
2022-08-28T04:26:28.121Z,97703.38
2022-08-28T04:27:32.479Z,97701.59
2022-08-28T04:28:35.872Z,97713.53
2022-08-28T04:29:42.493Z,97702.38
2022-08-28T04:30:45.485Z,97708.13
2022-08-28T04:31:48.573Z,97719.44
2022-08-28T04:32:51.603Z,97707.47
2022-08-28T04:33:54.539Z,97711.94
2022-08-28T04:34:57.572Z,97710.19
2022-08-28T04:36:06.560Z,97714.66
2022-08-28T04:37:09.606Z,97710.75
2022-08-28T04:38:12.830Z,97713.50
2022-08-28T04:39:16.005Z,97708.72
2022-08-28T04:40:19.551Z,97714.47
2022-08-28T04:41:23.197Z,97714.41
2022-08-28T04:42:26.338Z,97728.00
2022-08-28T04:43:29.359Z,97725.94
2022-08-28T04:44:32.637Z,97730.25
2022-08-28T04:45:45.777Z,97734.84
2022-08-28T04:46:49.011Z,97732.69
2022-08-28T04:47:52.220Z,97735.06
2022-08-28T04:48:56.375Z,97740.13
2022-08-28T04:49:59.299Z,97735.84
2022-08-28T04:51:04.597Z,97736.78
2022-08-28T04:52:07.478Z,97729.22
2022-08-28T04:53:11.787Z,97731.97
2022-08-28T04:54:14.914Z,97733.19
2022-08-28T04:55:18.299Z,97745.34
2022-08-28T04:56:37.841Z,97739.88
2022-08-28T04:57:40.817Z,97746.16
2022-08-28T04:58:44.444Z,97741.94
2022-08-28T04:59:48.022Z,97745.69
2022-08-28T05:00:52.538Z,97735.16
2022-08-28T05:01:55.775Z,97742.06
2022-08-28T05:02:58.725Z,97745.84
2022-08-28T05:04:03.105Z,97747.41
2022-08-28T05:05:06.320Z,97748.91
2022-08-28T05:06:09.436Z,97745.00
2022-08-28T05:07:12.381Z,97747.91
2022-08-28T05:08:18.364Z,97754.28
2022-08-28T05:09:21.895Z,97759.38
2022-08-28T05:10:26.054Z,97752.63
2022-08-28T05:11:34.237Z,97755.56
2022-08-28T05:12:38.077Z,97759.06
2022-08-28T05:13:41.379Z,97758.97
2022-08-28T05:14:44.840Z,97764.00
2022-08-28T05:15:50.442Z,97756.25
2022-08-28T05:16:54.183Z,97765.38
2022-08-28T05:17:57.475Z,97759.13
2022-08-28T05:19:03.963Z,97755.63
2022-08-28T05:20:07.412Z,97766.31
2022-08-28T05:21:20.935Z,97766.94
2022-08-28T05:22:24.023Z,97774.19
2022-08-28T05:23:26.952Z,97763.88
2022-08-28T05:24:29.836Z,97764.72
2022-08-28T05:25:42.163Z,97763.09
2022-08-28T05:26:48.197Z,97761.72
2022-08-28T05:27:51.985Z,97747.84
2022-08-28T05:28:56.489Z,97750.59
2022-08-28T05:30:05.322Z,97752.25
2022-08-28T05:31:13.624Z,97753.53
2022-08-28T05:32:16.611Z,97752.94
2022-08-28T05:33:20.283Z,97748.06
2022-08-28T05:34:23.656Z,97748.69
2022-08-28T05:35:27.615Z,97743.91
2022-08-28T05:36:34.831Z,97741.88
2022-08-28T05:37:41.282Z,97742.81
2022-08-28T05:38:45.243Z,97738.09
2022-08-28T05:39:48.273Z,97731.97
2022-08-28T05:40:51.149Z,97736.31
2022-08-28T05:41:54.116Z,97737.03
2022-08-28T05:42:57.093Z,97739.22
2022-08-28T05:44:03.416Z,97743.41
2022-08-28T05:45:07.242Z,97739.25
2022-08-28T05:46:10.828Z,97737.97
2022-08-28T05:47:15.435Z,97734.44
2022-08-28T05:48:18.313Z,97732.44
2022-08-28T05:49:21.267Z,97733.16
2022-08-28T05:50:24.304Z,97725.38
2022-08-28T05:51:27.905Z,97731.09
2022-08-28T05:52:30.959Z,97729.78
2022-08-28T05:53:41.371Z,97741.00
2022-08-28T05:54:44.299Z,97736.84
2022-08-28T05:55:51.745Z,97733.31
2022-08-28T05:56:54.938Z,97743.84
2022-08-28T05:58:17.841Z,97736.25
2022-08-28T05:59:20.751Z,97743.19
2022-08-28T06:00:23.639Z,97746.16
2022-08-28T06:01:29.654Z,97744.94
2022-08-28T06:02:35.065Z,97746.97
2022-08-28T06:03:39.704Z,97740.00
2022-08-28T06:04:42.721Z,97740.97
2022-08-28T06:05:45.671Z,97753.53
2022-08-28T06:06:49.677Z,97743.25
2022-08-28T06:07:53.046Z,97739.28
2022-08-28T06:09:01.814Z,97743.41
2022-08-28T06:10:05.185Z,97738.66
2022-08-28T06:11:09.795Z,97737.47
2022-08-28T06:12:12.662Z,97743.84
2022-08-28T06:13:17.650Z,97737.78
2022-08-28T06:14:23.194Z,97742.00
2022-08-28T06:15:27.834Z,97737.31
2022-08-28T06:16:33.400Z,97733.78
2022-08-28T06:17:38.456Z,97732.47
2022-08-28T06:18:42.302Z,97738.84
2022-08-28T06:19:45.238Z,97733.38
2022-08-28T06:20:48.121Z,97740.47
2022-08-28T06:21:54.682Z,97743.34
2022-08-28T06:22:57.742Z,97753.16
2022-08-28T06:24:00.818Z,97753.84
2022-08-28T06:25:07.478Z,97760.94
2022-08-28T06:26:11.632Z,97756.09
2022-08-28T06:27:14.561Z,97758.31
2022-08-28T06:28:21.519Z,97771.19
2022-08-28T06:29:24.915Z,97772.75
2022-08-28T06:30:28.288Z,97770.09
2022-08-28T06:31:33.858Z,97770.81
2022-08-28T06:32:36.956Z,97767.13
2022-08-28T06:33:40.147Z,97777.72
2022-08-28T06:34:43.165Z,97766.38
2022-08-28T06:35:49.511Z,97768.53
2022-08-28T06:36:54.196Z,97765.19
2022-08-28T06:37:58.842Z,97773.81
2022-08-28T06:39:04.922Z,97773.84
2022-08-28T06:40:09.243Z,97778.13
2022-08-28T06:41:12.696Z,97769.75
2022-08-28T06:42:15.884Z,97766.78
2022-08-28T06:43:21.404Z,97781.47
2022-08-28T06:44:24.470Z,97774.44
2022-08-28T06:45:27.546Z,97779.16
2022-08-28T06:46:31.991Z,97776.25
2022-08-28T06:47:34.954Z,97784.00
2022-08-28T06:48:41.334Z,97779.84
2022-08-28T06:49:44.264Z,97781.19
2022-08-28T06:50:49.990Z,97791.72
2022-08-28T06:51:53.058Z,97781.81
2022-08-28T06:52:56.183Z,97787.38
2022-08-28T06:53:59.388Z,97777.41
2022-08-28T06:55:02.674Z,97784.50
2022-08-28T06:56:09.884Z,97782.59
2022-08-28T06:57:12.861Z,97794.66
2022-08-28T06:58:15.866Z,97791.41
2022-08-28T06:59:18.861Z,97803.78
2022-08-28T07:00:21.954Z,97808.94
2022-08-28T07:01:36.520Z,97802.94
2022-08-28T07:02:39.693Z,97802.72
2022-08-28T07:03:44.527Z,97806.91
2022-08-28T07:04:52.451Z,97805.53
2022-08-28T07:06:02.699Z,97809.09
2022-08-28T07:07:07.463Z,97810.62
2022-08-28T07:08:10.282Z,97814.78
2022-08-28T07:09:13.480Z,97812.50
2022-08-28T07:10:16.353Z,97816.19
2022-08-28T07:11:29.112Z,97809.78
2022-08-28T07:12:32.117Z,97815.91
2022-08-28T07:13:35.143Z,97822.88
2022-08-28T07:14:38.383Z,97819.63
2022-08-28T07:15:41.843Z,97811.25
2022-08-28T07:16:45.203Z,97818.91
2022-08-28T07:17:48.509Z,97819.59
2022-08-28T07:18:51.544Z,97820.22
2022-08-28T07:19:54.547Z,97824.66
2022-08-28T07:21:00.781Z,97820.84
2022-08-28T07:22:05.081Z,97812.38
2022-08-28T07:23:08.031Z,97820.91
2022-08-28T07:24:13.474Z,97824.69
2022-08-28T07:25:17.389Z,97816.31
2022-08-28T07:26:24.424Z,97825.56
2022-08-28T07:27:27.878Z,97814.47
2022-08-28T07:28:30.855Z,97827.22
2022-08-28T07:29:33.849Z,97828.69
2022-08-28T07:30:37.059Z,97827.47
2022-08-28T07:31:49.401Z,97824.75
2022-08-28T07:32:52.561Z,97822.31
2022-08-28T07:33:56.437Z,97835.81
2022-08-28T07:34:59.973Z,97835.31
2022-08-28T07:36:06.102Z,97835.38
2022-08-28T07:37:13.314Z,97836.78
2022-08-28T07:38:18.331Z,97831.09
2022-08-28T07:39:21.347Z,97832.00
2022-08-28T07:40:24.344Z,97833.50
2022-08-28T07:41:35.679Z,97832.28
2022-08-28T07:42:57.839Z,97830.97
2022-08-28T07:44:19.270Z,97840.00
2022-08-28T07:45:22.902Z,97833.69
2022-08-28T07:46:25.794Z,97829.94
2022-08-28T07:47:31.859Z,97835.69
2022-08-28T07:48:36.132Z,97834.38
2022-08-28T07:49:40.066Z,97829.59
2022-08-28T07:50:43.100Z,97835.84
2022-08-28T07:51:46.725Z,97827.31
2022-08-28T07:52:50.233Z,97832.62
2022-08-28T07:53:54.277Z,97832.72
2022-08-28T07:54:57.651Z,97832.19
2022-08-28T07:56:00.696Z,97833.09
2022-08-28T07:57:05.139Z,97834.56
2022-08-28T07:58:08.162Z,97828.94
2022-08-28T07:59:16.694Z,97836.63
2022-08-28T08:00:20.412Z,97835.94
2022-08-28T08:01:24.734Z,97838.00
2022-08-28T08:02:27.866Z,97830.88
2022-08-28T08:03:31.815Z,97841.28
2022-08-28T08:04:35.446Z,97840.56
2022-08-28T08:05:38.445Z,97844.59
2022-08-28T08:06:42.426Z,97837.47
2022-08-28T08:07:46.014Z,97836.28
2022-08-28T08:08:49.134Z,97841.91
2022-08-28T08:09:52.172Z,97834.91
2022-08-28T08:11:08.067Z,97839.25
2022-08-28T08:12:15.287Z,97840.84
2022-08-28T08:13:18.282Z,97845.25
2022-08-28T08:14:21.451Z,97847.41
2022-08-28T08:15:26.434Z,97846.09
2022-08-28T08:16:35.873Z,97851.00
2022-08-28T08:17:39.580Z,97848.09
2022-08-28T08:18:42.774Z,97851.72
2022-08-28T08:19:45.743Z,97851.09
2022-08-28T08:20:48.576Z,97853.19
2022-08-28T08:21:55.022Z,97854.50
2022-08-28T08:22:58.316Z,97855.22
2022-08-28T08:24:01.313Z,97855.22
2022-08-28T08:25:05.568Z,97846.88
2022-08-28T08:26:11.581Z,97857.50
2022-08-28T08:27:14.374Z,97849.81
2022-08-28T08:28:17.317Z,97853.38
2022-08-28T08:29:21.230Z,97853.34
2022-08-28T08:30:24.268Z,97854.69
2022-08-28T08:31:33.075Z,97850.53
2022-08-28T08:32:36.113Z,97859.00
2022-08-28T08:33:42.971Z,97864.00
2022-08-28T08:34:46.395Z,97859.78
2022-08-28T08:35:49.320Z,97866.13
2022-08-28T08:36:52.280Z,97860.50
2022-08-28T08:37:55.183Z,97864.66
2022-08-28T08:39:00.563Z,97872.41
2022-08-28T08:40:06.505Z,97867.53
2022-08-28T08:41:29.518Z,97869.66
2022-08-28T08:42:34.244Z,97862.62
2022-08-28T08:44:06.227Z,97873.19
2022-08-28T08:45:13.968Z,97871.06
2022-08-28T08:46:17.290Z,97869.59
2022-08-28T08:47:35.783Z,97866.84
2022-08-28T08:48:43.431Z,97866.84
2022-08-28T08:49:57.781Z,97869.66
2022-08-28T08:51:07.011Z,97871.75
2022-08-28T08:52:31.506Z,97861.81
2022-08-28T08:54:04.463Z,97869.66
2022-08-28T08:55:16.714Z,97866.84
2022-08-28T08:56:22.061Z,97871.06
2022-08-28T08:57:25.086Z,97865.44
2022-08-28T08:58:44.253Z,97872.50
2022-08-28T08:59:47.691Z,97868.22
2022-08-28T09:01:01.588Z,97869.56
2022-08-28T09:02:22.774Z,97863.22
2022-08-28T09:03:53.779Z,97868.78
2022-08-28T09:05:05.205Z,97868.19
2022-08-28T09:06:13.553Z,97882.31
2022-08-28T09:07:16.377Z,97875.28
2022-08-28T09:08:30.990Z,97874.56
2022-08-28T09:09:41.745Z,97869.66
2022-08-28T09:10:55.734Z,97873.91
2022-08-28T09:12:07.736Z,97866.84
2022-08-28T09:13:47.562Z,97872.50
2022-08-28T09:15:13.308Z,97866.84
2022-08-28T09:16:42.968Z,97876.03
2022-08-28T09:17:53.370Z,97873.22
2022-08-28T09:18:58.393Z,97870.34
2022-08-28T09:20:01.342Z,97871.06
2022-08-28T09:21:05.113Z,97868.88
2022-08-28T09:22:08.217Z,97870.94
2022-08-28T09:23:13.465Z,97868.81
2022-08-28T09:24:23.315Z,97875.13
2022-08-28T09:25:47.956Z,97872.28
2022-08-28T09:27:23.131Z,97875.25
2022-08-28T09:28:41.266Z,97870.25
2022-08-28T09:30:07.274Z,97877.88
2022-08-28T09:31:20.012Z,97875.19
2022-08-28T09:32:34.143Z,97870.12
2022-08-28T09:33:41.660Z,97875.78
2022-08-28T09:35:00.548Z,97875.03
2022-08-28T09:36:35.409Z,97877.34
2022-08-28T09:37:39.222Z,97877.19
2022-08-28T09:38:42.207Z,97878.47
2022-08-28T09:39:48.744Z,97879.09
2022-08-28T09:41:28.299Z,97879.06
2022-08-28T09:42:50.037Z,97884.66
2022-08-28T09:43:53.200Z,97879.81
2022-08-28T09:45:09.092Z,97882.72
2022-08-28T09:46:27.503Z,97881.16
2022-08-28T09:47:46.833Z,97885.25
2022-08-28T09:48:54.562Z,97873.87
2022-08-28T09:50:15.708Z,97878.09
2022-08-28T09:51:21.423Z,97884.81
2022-08-28T09:52:25.375Z,97879.84
2022-08-28T09:53:29.664Z,97886.91
2022-08-28T09:54:42.841Z,97884.22
2022-08-28T09:56:08.570Z,97877.72
2022-08-28T09:57:12.162Z,97883.88
2022-08-28T09:58:15.649Z,97880.38
2022-08-28T09:59:21.562Z,97880.38
2022-08-28T10:00:24.976Z,97876.13
2022-08-28T10:01:49.364Z,97881.75
2022-08-28T10:03:14.835Z,97874.91
2022-08-28T10:04:50.342Z,97875.56
2022-08-28T10:06:19.183Z,97883.78
2022-08-28T10:07:34.301Z,97870.97
2022-08-28T10:09:03.085Z,97868.81
2022-08-28T10:10:27.587Z,97868.66
2022-08-28T10:11:52.084Z,97871.31
2022-08-28T10:13:31.661Z,97876.50
2022-08-28T10:15:19.793Z,97871.50
2022-08-28T10:16:53.747Z,97868.81
2022-08-28T10:18:33.069Z,97873.38
2022-08-28T10:19:48.105Z,97880.00
2022-08-28T10:21:09.360Z,97876.50
2022-08-28T10:22:44.301Z,97875.72
2022-08-28T10:24:09.849Z,97874.69
2022-08-28T10:25:43.215Z,97871.53
2022-08-28T10:27:24.194Z,97868.53
2022-08-28T10:28:39.677Z,97873.34
2022-08-28T10:30:06.734Z,97872.66
2022-08-28T10:31:14.551Z,97864.72
2022-08-28T10:32:49.011Z,97877.16
2022-08-28T10:34:13.940Z,97869.81
2022-08-28T10:35:58.375Z,97871.00
2022-08-28T10:37:30.486Z,97867.06
2022-08-28T10:38:49.476Z,97863.97
2022-08-28T10:40:00.311Z,97872.63
2022-08-28T10:41:08.723Z,97866.53
2022-08-28T10:42:12.139Z,97875.66
2022-08-28T10:43:24.329Z,97859.25
2022-08-28T10:44:44.403Z,97874.56
2022-08-28T10:45:52.139Z,97864.44
2022-08-28T10:46:57.764Z,97862.50
2022-08-28T10:48:20.246Z,97868.75
2022-08-28T10:49:23.328Z,97857.66
2022-08-28T10:50:51.581Z,97864.28
2022-08-28T10:52:04.618Z,97869.81
2022-08-28T10:53:14.688Z,97862.16
2022-08-28T10:54:41.316Z,97865.97
2022-08-28T10:55:49.994Z,97860.53
2022-08-28T10:57:21.965Z,97862.06
2022-08-28T10:58:25.997Z,97859.50
2022-08-28T10:59:33.238Z,97860.84
2022-08-28T11:00:45.781Z,97855.69
2022-08-28T11:01:49.651Z,97862.50
2022-08-28T11:03:33.541Z,97858.50
2022-08-28T11:04:37.939Z,97863.28
2022-08-28T11:06:04.512Z,97862.47
2022-08-28T11:07:12.230Z,97854.78
2022-08-28T11:08:37.273Z,97857.22
2022-08-28T11:09:46.283Z,97863.50
2022-08-28T11:10:54.038Z,97847.44
2022-08-28T11:12:07.793Z,97856.47
2022-08-28T11:13:11.244Z,97859.37
2022-08-28T11:14:39.371Z,97864.38
2022-08-28T11:15:53.815Z,97864.63
2022-08-28T11:17:23.173Z,97865.31
2022-08-28T11:18:28.063Z,97864.63
2022-08-28T11:19:56.231Z,97862.03
2022-08-28T11:21:20.796Z,97858.81
2022-08-28T11:22:45.646Z,97863.50
2022-08-28T11:23:55.247Z,97855.62
2022-08-28T11:25:26.673Z,97859.16
2022-08-28T11:26:59.832Z,97860.13
2022-08-28T11:28:15.167Z,97858.25
2022-08-28T11:29:55.823Z,97858.84
2022-08-28T11:30:58.808Z,97858.78
2022-08-28T11:32:36.513Z,97861.28
2022-08-28T11:33:50.683Z,97859.72
2022-08-28T11:35:22.852Z,97865.38
2022-08-28T11:36:27.925Z,97853.25
2022-08-28T11:37:43.638Z,97853.88
2022-08-28T11:38:47.118Z,97855.28
2022-08-28T11:39:50.125Z,97851.87
2022-08-28T11:40:57.181Z,97855.12
2022-08-28T11:42:13.704Z,97849.56
2022-08-28T11:43:17.046Z,97857.50
2022-08-28T11:44:41.356Z,97851.22
2022-08-28T11:45:46.974Z,97849.47
2022-08-28T11:46:52.981Z,97849.69
2022-08-28T11:47:57.012Z,97847.47
2022-08-28T11:49:03.758Z,97855.81
2022-08-28T11:50:23.381Z,97848.88
2022-08-28T11:52:04.002Z,97850.59
2022-08-28T11:53:25.485Z,97849.81
2022-08-28T11:54:31.320Z,97854.69
2022-08-28T11:55:49.339Z,97851.03
2022-08-28T11:57:03.843Z,97843.81
2022-08-28T11:58:29.714Z,97845.31
2022-08-28T11:59:41.465Z,97850.09
2022-08-28T12:00:53.361Z,97844.63
2022-08-28T12:01:57.677Z,97848.38
2022-08-28T12:03:17.057Z,97838.75
2022-08-28T12:04:23.959Z,97837.66
2022-08-28T12:05:33.451Z,97838.94
2022-08-28T12:06:52.513Z,97840.91
2022-08-28T12:07:55.448Z,97833.31
2022-08-28T12:08:58.374Z,97831.59
2022-08-28T12:10:04.945Z,97827.69
2022-08-28T12:11:08.256Z,97835.16
2022-08-28T12:12:26.503Z,97829.31
2022-08-28T12:13:53.805Z,97828.91
2022-08-28T12:15:01.255Z,97833.72
2022-08-28T12:16:08.079Z,97832.84
2022-08-28T12:17:21.339Z,97833.06
2022-08-28T12:18:40.543Z,97833.62
2022-08-28T12:20:00.395Z,97838.16
2022-08-28T12:21:07.161Z,97829.88
2022-08-28T12:22:13.622Z,97835.56
2022-08-28T12:23:58.907Z,97832.97
2022-08-28T12:25:06.662Z,97836.63
2022-08-28T12:26:13.384Z,97835.16
2022-08-28T12:27:17.108Z,97830.41
2022-08-28T12:28:26.674Z,97834.00
2022-08-28T12:29:38.189Z,97840.38
2022-08-28T12:30:52.643Z,97827.47
2022-08-28T12:32:20.646Z,97827.47
2022-08-28T12:33:30.980Z,97823.28
2022-08-28T12:35:03.793Z,97833.12
2022-08-28T12:36:15.603Z,97828.37
2022-08-28T12:37:51.960Z,97826.34
2022-08-28T12:39:00.763Z,97815.84
2022-08-28T12:40:15.874Z,97822.84
2022-08-28T12:41:21.011Z,97828.06
2022-08-28T12:42:30.453Z,97825.19
2022-08-28T12:43:43.239Z,97818.75
2022-08-28T12:44:50.422Z,97818.75
2022-08-28T12:45:57.322Z,97824.72
2022-08-28T12:47:00.787Z,97820.13
2022-08-28T12:48:21.564Z,97822.13
2022-08-28T12:49:36.186Z,97837.09
2022-08-28T12:50:40.288Z,97816.56
2022-08-28T12:51:43.186Z,97827.31
2022-08-28T12:52:56.340Z,97815.72
2022-08-28T12:54:05.708Z,97818.56
2022-08-28T12:55:09.216Z,97827.44
2022-08-28T12:56:17.313Z,97815.09
2022-08-28T12:57:23.935Z,97825.34
2022-08-28T12:58:39.579Z,97823.88
2022-08-28T12:59:48.777Z,97818.78
2022-08-28T13:01:01.778Z,97828.31
2022-08-28T13:02:13.293Z,97817.53
2022-08-28T13:03:16.509Z,97811.56
2022-08-28T13:04:33.427Z,97808.19
2022-08-28T13:05:41.972Z,97812.13
2022-08-28T13:06:44.975Z,97813.63
2022-08-28T13:07:51.655Z,97813.75
2022-08-28T13:09:01.106Z,97821.37
2022-08-28T13:10:26.888Z,97823.59
2022-08-28T13:11:35.817Z,97817.47
2022-08-28T13:12:54.680Z,97818.91
2022-08-28T13:13:58.632Z,97821.81
2022-08-28T13:15:02.709Z,97814.16
2022-08-28T13:16:10.557Z,97817.81
2022-08-28T13:17:15.900Z,97813.72
2022-08-28T13:18:52.421Z,97821.63
2022-08-28T13:20:09.602Z,97818.75
2022-08-28T13:21:14.007Z,97815.25
2022-08-28T13:22:40.777Z,97817.94
2022-08-28T13:23:54.367Z,97816.50